sensor_id;sensor_type;location;lat;lon;timestamp;temperature;humidity
17346;DHT22;8790;53.590;10.002;2022-11-14T00:02:07;9.40;99.90
17346;DHT22;8790;53.590;10.002;2022-11-14T00:04:57;9.40;99.90
17346;DHT22;8790;53.590;10.002;2022-11-14T00:07:48;9.40;99.90
17346;DHT22;8790;53.590;10.002;2022-11-14T00:10:38;9.40;99.90
17346;DHT22;8790;53.590;10.002;2022-11-14T00:13:29;9.40;99.90
17346;DHT22;8790;53.590;10.002;2022-11-14T00:16:20;9.40;99.90
17346;DHT22;8790;53.590;10.002;2022-11-14T00:19:11;9.30;99.90
17346;DHT22;8790;53.590;10.002;2022-11-14T00:22:02;9.40;99.90
17346;DHT22;8790;53.590;10.002;2022-11-14T00:24:52;9.30;99.90
17346;DHT22;8790;53.590;10.002;2022-11-14T00:27:43;9.30;99.90
17346;DHT22;8790;53.590;10.002;2022-11-14T00:30:33;9.30;99.90
17346;DHT22;8790;53.590;10.002;2022-11-14T00:33:25;9.20;99.90
17346;DHT22;8790;53.590;10.002;2022-11-14T00:36:15;9.20;99.90
17346;DHT22;8790;53.590;10.002;2022-11-14T00:39:06;9.20;99.90
17346;DHT22;8790;53.590;10.002;2022-11-14T00:41:56;9.20;99.90
17346;DHT22;8790;53.590;10.002;2022-11-14T00:44:47;9.20;99.90
17346;DHT22;8790;53.590;10.002;2022-11-14T00:47:37;9.20;99.90
17346;DHT22;8790;53.590;10.002;2022-11-14T00:50:29;9.10;99.90
17346;DHT22;8790;53.590;10.002;2022-11-14T00:53:20;9.10;99.90
17346;DHT22;8790;53.590;10.002;2022-11-14T00:56:10;9.10;99.90
17346;DHT22;8790;53.590;10.002;2022-11-14T00:59:01;9.00;99.90
17346;DHT22;8790;53.590;10.002;2022-11-14T01:01:51;9.00;99.90
17346;DHT22;8790;53.590;10.002;2022-11-14T01:04:42;9.00;99.90
17346;DHT22;8790;53.590;10.002;2022-11-14T01:07:34;9.00;99.90
17346;DHT22;8790;53.590;10.002;2022-11-14T01:10:24;9.00;99.90
17346;DHT22;8790;53.590;10.002;2022-11-14T01:13:16;9.00;99.90
17346;DHT22;8790;53.590;10.002;2022-11-14T01:16:07;9.00;99.90
17346;DHT22;8790;53.590;10.002;2022-11-14T01:18:58;9.00;99.90
17346;DHT22;8790;53.590;10.002;2022-11-14T01:21:48;9.00;99.90
17346;DHT22;8790;53.590;10.002;2022-11-14T01:24:39;9.00;99.90
17346;DHT22;8790;53.590;10.002;2022-11-14T01:27:30;9.00;99.90
17346;DHT22;8790;53.590;10.002;2022-11-14T01:30:20;9.00;99.90
17346;DHT22;8790;53.590;10.002;2022-11-14T01:33:11;9.00;99.90
17346;DHT22;8790;53.590;10.002;2022-11-14T01:36:01;9.00;99.90
17346;DHT22;8790;53.590;10.002;2022-11-14T01:38:52;9.00;99.90
17346;DHT22;8790;53.590;10.002;2022-11-14T01:41:44;8.90;99.90
17346;DHT22;8790;53.590;10.002;2022-11-14T01:44:45;8.90;99.90
17346;DHT22;8790;53.590;10.002;2022-11-14T01:47:36;8.90;99.90
17346;DHT22;8790;53.590;10.002;2022-11-14T01:50:26;8.90;99.90
17346;DHT22;8790;53.590;10.002;2022-11-14T01:53:17;8.90;99.90
17346;DHT22;8790;53.590;10.002;2022-11-14T01:56:07;8.90;99.90
17346;DHT22;8790;53.590;10.002;2022-11-14T01:59:07;8.90;99.90
17346;DHT22;8790;53.590;10.002;2022-11-14T02:02:02;8.80;99.90
17346;DHT22;8790;53.590;10.002;2022-11-14T02:04:57;8.80;99.90
17346;DHT22;8790;53.590;10.002;2022-11-14T02:07:48;8.80;99.90
17346;DHT22;8790;53.590;10.002;2022-11-14T02:10:39;8.90;99.90
17346;DHT22;8790;53.590;10.002;2022-11-14T02:13:29;8.80;99.90
17346;DHT22;8790;53.590;10.002;2022-11-14T02:16:21;8.80;99.90
17346;DHT22;8790;53.590;10.002;2022-11-14T02:19:13;8.80;99.90
17346;DHT22;8790;53.590;10.002;2022-11-14T02:22:05;8.90;99.90
17346;DHT22;8790;53.590;10.002;2022-11-14T02:24:56;8.80;99.90
17346;DHT22;8790;53.590;10.002;2022-11-14T02:27:46;8.80;99.90
17346;DHT22;8790;53.590;10.002;2022-11-14T02:30:37;8.80;99.90
17346;DHT22;8790;53.590;10.002;2022-11-14T02:33:27;8.80;99.90
17346;DHT22;8790;53.590;10.002;2022-11-14T02:36:18;8.80;99.90
17346;DHT22;8790;53.590;10.002;2022-11-14T02:39:09;8.70;99.90
17346;DHT22;8790;53.590;10.002;2022-11-14T02:42:00;8.70;99.90
17346;DHT22;8790;53.590;10.002;2022-11-14T02:44:50;8.70;99.90
17346;DHT22;8790;53.590;10.002;2022-11-14T02:47:41;8.70;99.90
17346;DHT22;8790;53.590;10.002;2022-11-14T02:50:31;8.80;99.90
17346;DHT22;8790;53.590;10.002;2022-11-14T02:53:22;8.70;99.90
17346;DHT22;8790;53.590;10.002;2022-11-14T02:56:14;8.70;99.90
17346;DHT22;8790;53.590;10.002;2022-11-14T02:59:04;8.70;99.90
17346;DHT22;8790;53.590;10.002;2022-11-14T03:01:55;8.70;99.90
17346;DHT22;8790;53.590;10.002;2022-11-14T03:04:45;8.70;99.90
17346;DHT22;8790;53.590;10.002;2022-11-14T03:07:36;8.70;99.90
17346;DHT22;8790;53.590;10.002;2022-11-14T03:10:27;8.70;99.90
17346;DHT22;8790;53.590;10.002;2022-11-14T03:13:18;8.80;99.90
17346;DHT22;8790;53.590;10.002;2022-11-14T03:16:10;8.70;99.90
17346;DHT22;8790;53.590;10.002;2022-11-14T03:19:01;8.70;99.90
17346;DHT22;8790;53.590;10.002;2022-11-14T03:21:51;8.70;99.90
17346;DHT22;8790;53.590;10.002;2022-11-14T03:24:42;8.80;99.90
17346;DHT22;8790;53.590;10.002;2022-11-14T03:27:32;8.70;99.90
17346;DHT22;8790;53.590;10.002;2022-11-14T03:30:24;8.70;99.90
17346;DHT22;8790;53.590;10.002;2022-11-14T03:33:15;8.70;99.90
17346;DHT22;8790;53.590;10.002;2022-11-14T03:36:06;8.80;99.90
17346;DHT22;8790;53.590;10.002;2022-11-14T03:38:57;8.80;99.90
17346;DHT22;8790;53.590;10.002;2022-11-14T03:41:47;8.70;99.90
17346;DHT22;8790;53.590;10.002;2022-11-14T03:44:38;8.70;99.90
17346;DHT22;8790;53.590;10.002;2022-11-14T03:47:30;8.70;99.90
17346;DHT22;8790;53.590;10.002;2022-11-14T03:50:21;8.70;99.90
17346;DHT22;8790;53.590;10.002;2022-11-14T03:53:11;8.70;99.90
17346;DHT22;8790;53.590;10.002;2022-11-14T03:56:02;8.70;99.90
17346;DHT22;8790;53.590;10.002;2022-11-14T03:58:52;8.70;99.90
17346;DHT22;8790;53.590;10.002;2022-11-14T04:01:43;8.70;99.90
17346;DHT22;8790;53.590;10.002;2022-11-14T04:04:34;8.70;99.90
17346;DHT22;8790;53.590;10.002;2022-11-14T04:07:25;8.70;99.90
17346;DHT22;8790;53.590;10.002;2022-11-14T04:10:15;8.70;99.90
17346;DHT22;8790;53.590;10.002;2022-11-14T04:13:06;8.70;99.90
17346;DHT22;8790;53.590;10.002;2022-11-14T04:15:57;8.70;99.90
17346;DHT22;8790;53.590;10.002;2022-11-14T04:18:48;8.60;99.90
17346;DHT22;8790;53.590;10.002;2022-11-14T04:21:39;8.60;99.90
17346;DHT22;8790;53.590;10.002;2022-11-14T04:24:30;8.60;99.90
17346;DHT22;8790;53.590;10.002;2022-11-14T04:27:20;8.60;99.90
17346;DHT22;8790;53.590;10.002;2022-11-14T04:30:11;8.60;99.90
17346;DHT22;8790;53.590;10.002;2022-11-14T04:33:01;8.60;99.90
17346;DHT22;8790;53.590;10.002;2022-11-14T04:35:52;8.60;99.90
17346;DHT22;8790;53.590;10.002;2022-11-14T04:38:44;8.60;99.90
17346;DHT22;8790;53.590;10.002;2022-11-14T04:41:34;8.50;99.90
17346;DHT22;8790;53.590;10.002;2022-11-14T04:44:24;8.60;99.90
17346;DHT22;8790;53.590;10.002;2022-11-14T04:47:15;8.60;99.90
17346;DHT22;8790;53.590;10.002;2022-11-14T04:50:06;8.50;99.90
17346;DHT22;8790;53.590;10.002;2022-11-14T04:52:57;8.50;99.90
17346;DHT22;8790;53.590;10.002;2022-11-14T04:55:49;8.50;99.90
17346;DHT22;8790;53.590;10.002;2022-11-14T04:58:39;8.50;99.90
17346;DHT22;8790;53.590;10.002;2022-11-14T05:01:29;8.50;99.90
17346;DHT22;8790;53.590;10.002;2022-11-14T05:04:20;8.50;99.90
17346;DHT22;8790;53.590;10.002;2022-11-14T05:07:10;8.50;99.90
17346;DHT22;8790;53.590;10.002;2022-11-14T05:10:01;8.50;99.90
17346;DHT22;8790;53.590;10.002;2022-11-14T05:12:54;8.40;99.90
17346;DHT22;8790;53.590;10.002;2022-11-14T05:15:44;8.40;99.90
17346;DHT22;8790;53.590;10.002;2022-11-14T05:18:35;8.50;99.90
17346;DHT22;8790;53.590;10.002;2022-11-14T05:21:28;8.50;99.90
17346;DHT22;8790;53.590;10.002;2022-11-14T05:24:19;8.40;99.90
17346;DHT22;8790;53.590;10.002;2022-11-14T05:27:09;8.50;99.90
17346;DHT22;8790;53.590;10.002;2022-11-14T05:30:01;8.50;99.90
17346;DHT22;8790;53.590;10.002;2022-11-14T05:32:52;8.50;99.90
17346;DHT22;8790;53.590;10.002;2022-11-14T05:35:42;8.50;99.90
17346;DHT22;8790;53.590;10.002;2022-11-14T05:38:33;8.40;99.90
17346;DHT22;8790;53.590;10.002;2022-11-14T05:41:23;8.50;99.90
17346;DHT22;8790;53.590;10.002;2022-11-14T05:44:14;8.50;99.90
17346;DHT22;8790;53.590;10.002;2022-11-14T05:47:05;8.50;99.90
17346;DHT22;8790;53.590;10.002;2022-11-14T05:49:56;8.50;99.90
17346;DHT22;8790;53.590;10.002;2022-11-14T05:52:46;8.40;99.90
17346;DHT22;8790;53.590;10.002;2022-11-14T05:55:37;8.50;99.90
17346;DHT22;8790;53.590;10.002;2022-11-14T05:58:27;8.40;99.90
17346;DHT22;8790;53.590;10.002;2022-11-14T06:01:18;8.40;99.90
17346;DHT22;8790;53.590;10.002;2022-11-14T06:04:12;8.50;99.90
17346;DHT22;8790;53.590;10.002;2022-11-14T06:07:02;8.50;99.90
17346;DHT22;8790;53.590;10.002;2022-11-14T06:09:53;8.50;99.90
17346;DHT22;8790;53.590;10.002;2022-11-14T06:12:43;8.50;99.90
17346;DHT22;8790;53.590;10.002;2022-11-14T06:15:33;8.50;99.90
17346;DHT22;8790;53.590;10.002;2022-11-14T06:18:24;8.40;99.90
17346;DHT22;8790;53.590;10.002;2022-11-14T06:21:17;8.40;99.90
17346;DHT22;8790;53.590;10.002;2022-11-14T06:24:08;8.40;99.90
17346;DHT22;8790;53.590;10.002;2022-11-14T06:26:59;8.40;99.90
17346;DHT22;8790;53.590;10.002;2022-11-14T06:29:49;8.40;99.90
17346;DHT22;8790;53.590;10.002;2022-11-14T06:32:40;8.40;99.90
17346;DHT22;8790;53.590;10.002;2022-11-14T06:35:30;8.40;99.90
17346;DHT22;8790;53.590;10.002;2022-11-14T06:38:26;8.40;99.90
17346;DHT22;8790;53.590;10.002;2022-11-14T06:41:18;8.40;99.90
17346;DHT22;8790;53.590;10.002;2022-11-14T06:44:08;8.40;99.90
17346;DHT22;8790;53.590;10.002;2022-11-14T06:46:59;8.40;99.90
17346;DHT22;8790;53.590;10.002;2022-11-14T06:49:49;8.40;99.90
17346;DHT22;8790;53.590;10.002;2022-11-14T06:52:40;8.30;99.90
17346;DHT22;8790;53.590;10.002;2022-11-14T06:55:32;8.40;99.90
17346;DHT22;8790;53.590;10.002;2022-11-14T06:58:25;8.40;99.90
17346;DHT22;8790;53.590;10.002;2022-11-14T07:01:17;8.40;99.90
17346;DHT22;8790;53.590;10.002;2022-11-14T07:04:08;8.40;99.90
17346;DHT22;8790;53.590;10.002;2022-11-14T07:06:59;8.40;99.90
17346;DHT22;8790;53.590;10.002;2022-11-14T07:09:50;8.30;99.90
17346;DHT22;8790;53.590;10.002;2022-11-14T07:12:44;8.30;99.90
17346;DHT22;8790;53.590;10.002;2022-11-14T07:15:34;8.40;99.90
17346;DHT22;8790;53.590;10.002;2022-11-14T07:18:25;8.40;99.90
17346;DHT22;8790;53.590;10.002;2022-11-14T07:21:15;8.40;99.90
17346;DHT22;8790;53.590;10.002;2022-11-14T07:24:06;8.40;99.90
17346;DHT22;8790;53.590;10.002;2022-11-14T07:26:57;8.40;99.90
17346;DHT22;8790;53.590;10.002;2022-11-14T07:29:49;8.30;99.90
17346;DHT22;8790;53.590;10.002;2022-11-14T07:32:39;8.30;99.90
17346;DHT22;8790;53.590;10.002;2022-11-14T07:35:30;8.40;99.90
17346;DHT22;8790;53.590;10.002;2022-11-14T07:38:20;8.40;99.90
17346;DHT22;8790;53.590;10.002;2022-11-14T07:41:12;8.40;99.90
17346;DHT22;8790;53.590;10.002;2022-11-14T07:44:03;8.30;99.90
17346;DHT22;8790;53.590;10.002;2022-11-14T07:46:55;8.30;99.90
17346;DHT22;8790;53.590;10.002;2022-11-14T07:49:45;8.30;99.90
17346;DHT22;8790;53.590;10.002;2022-11-14T07:52:36;8.30;99.90
17346;DHT22;8790;53.590;10.002;2022-11-14T07:55:26;8.30;99.90
17346;DHT22;8790;53.590;10.002;2022-11-14T07:58:17;8.40;99.90
17346;DHT22;8790;53.590;10.002;2022-11-14T08:01:09;8.30;99.90
17346;DHT22;8790;53.590;10.002;2022-11-14T08:04:01;8.30;99.90
17346;DHT22;8790;53.590;10.002;2022-11-14T08:06:51;8.30;99.90
17346;DHT22;8790;53.590;10.002;2022-11-14T08:09:42;8.30;99.90
17346;DHT22;8790;53.590;10.002;2022-11-14T08:12:32;8.30;99.90
17346;DHT22;8790;53.590;10.002;2022-11-14T08:15:22;8.40;99.90
17346;DHT22;8790;53.590;10.002;2022-11-14T08:18:12;8.30;99.90
17346;DHT22;8790;53.590;10.002;2022-11-14T08:21:05;8.30;99.90
17346;DHT22;8790;53.590;10.002;2022-11-14T08:23:55;8.30;99.90
17346;DHT22;8790;53.590;10.002;2022-11-14T08:26:46;8.30;99.90
17346;DHT22;8790;53.590;10.002;2022-11-14T08:29:36;8.30;99.90
17346;DHT22;8790;53.590;10.002;2022-11-14T08:32:26;8.30;99.90
17346;DHT22;8790;53.590;10.002;2022-11-14T08:35:17;8.30;99.90
17346;DHT22;8790;53.590;10.002;2022-11-14T08:38:09;8.30;99.90
17346;DHT22;8790;53.590;10.002;2022-11-14T08:41:00;8.20;99.90
17346;DHT22;8790;53.590;10.002;2022-11-14T08:43:51;8.20;99.90
17346;DHT22;8790;53.590;10.002;2022-11-14T08:46:41;8.20;99.90
17346;DHT22;8790;53.590;10.002;2022-11-14T08:49:32;8.20;99.90
17346;DHT22;8790;53.590;10.002;2022-11-14T08:52:22;8.30;99.90
17346;DHT22;8790;53.590;10.002;2022-11-14T08:55:14;8.20;99.90
17346;DHT22;8790;53.590;10.002;2022-11-14T08:58:04;8.20;99.90
17346;DHT22;8790;53.590;10.002;2022-11-14T09:00:59;8.30;99.90
17346;DHT22;8790;53.590;10.002;2022-11-14T09:03:49;8.30;99.90
17346;DHT22;8790;53.590;10.002;2022-11-14T09:06:40;8.20;99.90
17346;DHT22;8790;53.590;10.002;2022-11-14T09:09:30;8.20;99.90
17346;DHT22;8790;53.590;10.002;2022-11-14T09:12:22;8.20;99.90
17346;DHT22;8790;53.590;10.002;2022-11-14T09:15:12;8.30;99.90
17346;DHT22;8790;53.590;10.002;2022-11-14T09:18:03;8.40;99.90
17346;DHT22;8790;53.590;10.002;2022-11-14T09:20:58;8.30;99.90
17346;DHT22;8790;53.590;10.002;2022-11-14T09:23:49;8.30;99.90
17346;DHT22;8790;53.590;10.002;2022-11-14T09:26:39;8.30;99.90
17346;DHT22;8790;53.590;10.002;2022-11-14T09:29:31;8.30;99.90
17346;DHT22;8790;53.590;10.002;2022-11-14T09:32:21;8.30;99.90
17346;DHT22;8790;53.590;10.002;2022-11-14T09:35:12;8.20;99.90
17346;DHT22;8790;53.590;10.002;2022-11-14T09:38:05;8.20;99.90
17346;DHT22;8790;53.590;10.002;2022-11-14T09:41:09;8.30;99.90
17346;DHT22;8790;53.590;10.002;2022-11-14T09:44:24;8.30;99.90
17346;DHT22;8790;53.590;10.002;2022-11-14T09:47:23;8.30;99.90
17346;DHT22;8790;53.590;10.002;2022-11-14T09:50:16;8.30;99.90
17346;DHT22;8790;53.590;10.002;2022-11-14T09:53:14;8.30;99.90
17346;DHT22;8790;53.590;10.002;2022-11-14T09:56:11;8.30;99.90
17346;DHT22;8790;53.590;10.002;2022-11-14T09:59:01;8.30;99.90
17346;DHT22;8790;53.590;10.002;2022-11-14T10:01:56;8.30;99.90
17346;DHT22;8790;53.590;10.002;2022-11-14T10:05:02;8.40;99.90
17346;DHT22;8790;53.590;10.002;2022-11-14T10:08:14;8.40;99.90
17346;DHT22;8790;53.590;10.002;2022-11-14T10:11:08;8.30;99.90
17346;DHT22;8790;53.590;10.002;2022-11-14T10:14:14;8.40;99.90
17346;DHT22;8790;53.590;10.002;2022-11-14T10:17:19;8.40;99.90
17346;DHT22;8790;53.590;10.002;2022-11-14T10:20:19;8.40;99.90
17346;DHT22;8790;53.590;10.002;2022-11-14T10:23:20;8.40;99.90
17346;DHT22;8790;53.590;10.002;2022-11-14T10:26:16;8.50;99.90
17346;DHT22;8790;53.590;10.002;2022-11-14T10:33:13;8.50;99.90
17346;DHT22;8790;53.590;10.002;2022-11-14T10:36:14;8.40;99.90
17346;DHT22;8790;53.590;10.002;2022-11-14T10:39:12;8.50;99.90
17346;DHT22;8790;53.590;10.002;2022-11-14T10:42:10;8.50;99.90
17346;DHT22;8790;53.590;10.002;2022-11-14T10:45:05;8.50;99.90
17346;DHT22;8790;53.590;10.002;2022-11-14T10:47:59;8.50;99.90
17346;DHT22;8790;53.590;10.002;2022-11-14T10:50:54;8.50;99.90
17346;DHT22;8790;53.590;10.002;2022-11-14T10:53:49;8.60;99.90
17346;DHT22;8790;53.590;10.002;2022-11-14T10:56:47;8.60;99.90
17346;DHT22;8790;53.590;10.002;2022-11-14T10:59:38;8.60;99.90
17346;DHT22;8790;53.590;10.002;2022-11-14T11:02:47;8.60;99.90
17346;DHT22;8790;53.590;10.002;2022-11-14T11:05:46;8.60;99.90
17346;DHT22;8790;53.590;10.002;2022-11-14T11:08:40;8.60;99.90
17346;DHT22;8790;53.590;10.002;2022-11-14T11:11:58;8.70;99.90
17346;DHT22;8790;53.590;10.002;2022-11-14T11:15:07;8.70;99.90
17346;DHT22;8790;53.590;10.002;2022-11-14T11:18:04;8.80;99.90
17346;DHT22;8790;53.590;10.002;2022-11-14T11:21:04;8.80;99.90
17346;DHT22;8790;53.590;10.002;2022-11-14T11:23:56;8.80;99.90
17346;DHT22;8790;53.590;10.002;2022-11-14T11:26:46;8.80;99.90
17346;DHT22;8790;53.590;10.002;2022-11-14T11:29:38;8.90;99.90
17346;DHT22;8790;53.590;10.002;2022-11-14T11:32:28;8.90;99.90
17346;DHT22;8790;53.590;10.002;2022-11-14T11:35:19;8.90;99.90
17346;DHT22;8790;53.590;10.002;2022-11-14T11:38:11;9.00;99.90
17346;DHT22;8790;53.590;10.002;2022-11-14T11:41:08;9.00;99.90
17346;DHT22;8790;53.590;10.002;2022-11-14T11:44:05;9.00;99.90
17346;DHT22;8790;53.590;10.002;2022-11-14T11:46:58;9.00;99.90
17346;DHT22;8790;53.590;10.002;2022-11-14T11:49:50;9.10;99.90
17346;DHT22;8790;53.590;10.002;2022-11-14T11:52:49;9.10;99.90
17346;DHT22;8790;53.590;10.002;2022-11-14T11:55:43;9.10;99.90
17346;DHT22;8790;53.590;10.002;2022-11-14T11:58:40;9.20;99.90
17346;DHT22;8790;53.590;10.002;2022-11-14T12:01:32;9.20;99.90
17346;DHT22;8790;53.590;10.002;2022-11-14T12:04:23;9.30;99.90
17346;DHT22;8790;53.590;10.002;2022-11-14T12:07:17;9.20;99.90
17346;DHT22;8790;53.590;10.002;2022-11-14T12:10:15;9.20;99.90
17346;DHT22;8790;53.590;10.002;2022-11-14T12:16:49;9.30;99.90
17346;DHT22;8790;53.590;10.002;2022-11-14T12:30:03;9.50;99.90
17346;DHT22;8790;53.590;10.002;2022-11-14T12:32:59;9.50;99.90
17346;DHT22;8790;53.590;10.002;2022-11-14T12:35:53;9.50;99.90
17346;DHT22;8790;53.590;10.002;2022-11-14T12:38:48;9.50;99.90
17346;DHT22;8790;53.590;10.002;2022-11-14T12:41:40;9.50;99.90
17346;DHT22;8790;53.590;10.002;2022-11-14T12:44:34;9.60;99.90
17346;DHT22;8790;53.590;10.002;2022-11-14T12:47:25;9.60;99.90
17346;DHT22;8790;53.590;10.002;2022-11-14T12:50:40;9.60;99.90
17346;DHT22;8790;53.590;10.002;2022-11-14T12:53:45;9.60;99.90
17346;DHT22;8790;53.590;10.002;2022-11-14T12:56:48;9.60;99.90
17346;DHT22;8790;53.590;10.002;2022-11-14T12:59:50;9.60;99.90
17346;DHT22;8790;53.590;10.002;2022-11-14T13:06:08;9.60;99.90
17346;DHT22;8790;53.590;10.002;2022-11-14T13:09:33;9.60;99.90
17346;DHT22;8790;53.590;10.002;2022-11-14T13:12:31;9.60;99.90
17346;DHT22;8790;53.590;10.002;2022-11-14T13:15:48;9.70;99.90
17346;DHT22;8790;53.590;10.002;2022-11-14T13:19:01;9.70;99.90
17346;DHT22;8790;53.590;10.002;2022-11-14T13:22:37;9.70;99.90
17346;DHT22;8790;53.590;10.002;2022-11-14T13:25:29;9.70;99.90
17346;DHT22;8790;53.590;10.002;2022-11-14T13:28:43;9.70;99.90
17346;DHT22;8790;53.590;10.002;2022-11-14T13:31:49;9.80;99.90
17346;DHT22;8790;53.590;10.002;2022-11-14T13:34:48;9.80;99.90
17346;DHT22;8790;53.590;10.002;2022-11-14T13:37:57;9.80;99.90
17346;DHT22;8790;53.590;10.002;2022-11-14T13:41:02;9.80;99.90
17346;DHT22;8790;53.590;10.002;2022-11-14T13:44:02;9.80;99.90
17346;DHT22;8790;53.590;10.002;2022-11-14T13:47:08;9.80;99.90
17346;DHT22;8790;53.590;10.002;2022-11-14T13:50:02;9.80;99.90
17346;DHT22;8790;53.590;10.002;2022-11-14T13:52:54;9.80;99.90
17346;DHT22;8790;53.590;10.002;2022-11-14T13:56:03;9.80;99.90
17346;DHT22;8790;53.590;10.002;2022-11-14T13:59:20;9.80;99.90
17346;DHT22;8790;53.590;10.002;2022-11-14T14:05:37;9.80;99.90
17346;DHT22;8790;53.590;10.002;2022-11-14T14:08:48;9.80;99.90
17346;DHT22;8790;53.590;10.002;2022-11-14T14:12:00;9.90;99.90
17346;DHT22;8790;53.590;10.002;2022-11-14T14:15:05;9.80;99.90
17346;DHT22;8790;53.590;10.002;2022-11-14T14:18:04;9.90;99.90
17346;DHT22;8790;53.590;10.002;2022-11-14T14:21:01;10.10;99.90
17346;DHT22;8790;53.590;10.002;2022-11-14T14:24:01;10.00;99.90
17346;DHT22;8790;53.590;10.002;2022-11-14T14:27:01;9.90;99.90
17346;DHT22;8790;53.590;10.002;2022-11-14T14:30:02;9.90;99.90
17346;DHT22;8790;53.590;10.002;2022-11-14T14:33:10;9.90;99.90
17346;DHT22;8790;53.590;10.002;2022-11-14T14:36:01;9.90;99.90
17346;DHT22;8790;53.590;10.002;2022-11-14T14:39:10;9.90;99.90
17346;DHT22;8790;53.590;10.002;2022-11-14T14:42:09;9.90;99.90
17346;DHT22;8790;53.590;10.002;2022-11-14T14:45:02;9.90;99.90
17346;DHT22;8790;53.590;10.002;2022-11-14T14:47:59;9.90;99.90
17346;DHT22;8790;53.590;10.002;2022-11-14T14:50:52;9.90;99.90
17346;DHT22;8790;53.590;10.002;2022-11-14T14:53:50;9.90;99.90
17346;DHT22;8790;53.590;10.002;2022-11-14T14:56:51;9.90;99.90
17346;DHT22;8790;53.590;10.002;2022-11-14T14:59:43;9.80;99.90
17346;DHT22;8790;53.590;10.002;2022-11-14T15:02:33;9.90;99.90
17346;DHT22;8790;53.590;10.002;2022-11-14T15:05:26;9.80;99.90
17346;DHT22;8790;53.590;10.002;2022-11-14T15:08:17;9.80;99.90
17346;DHT22;8790;53.590;10.002;2022-11-14T15:11:07;9.80;99.90
17346;DHT22;8790;53.590;10.002;2022-11-14T15:13:58;9.80;99.90
17346;DHT22;8790;53.590;10.002;2022-11-14T15:16:51;9.80;99.90
17346;DHT22;8790;53.590;10.002;2022-11-14T15:19:45;9.80;99.90
17346;DHT22;8790;53.590;10.002;2022-11-14T15:22:35;9.80;99.90
17346;DHT22;8790;53.590;10.002;2022-11-14T15:25:27;9.80;99.90
17346;DHT22;8790;53.590;10.002;2022-11-14T15:28:19;9.70;99.90
17346;DHT22;8790;53.590;10.002;2022-11-14T15:31:18;9.70;99.90
17346;DHT22;8790;53.590;10.002;2022-11-14T15:34:24;9.70;99.90
17346;DHT22;8790;53.590;10.002;2022-11-14T15:37:20;9.70;99.90
17346;DHT22;8790;53.590;10.002;2022-11-14T15:40:16;9.70;99.90
17346;DHT22;8790;53.590;10.002;2022-11-14T15:43:34;9.60;99.90
17346;DHT22;8790;53.590;10.002;2022-11-14T15:46:37;9.60;99.90
17346;DHT22;8790;53.590;10.002;2022-11-14T15:49:29;9.60;99.90
17346;DHT22;8790;53.590;10.002;2022-11-14T15:52:22;9.60;99.90
17346;DHT22;8790;53.590;10.002;2022-11-14T15:55:16;9.60;99.90
17346;DHT22;8790;53.590;10.002;2022-11-14T15:58:07;9.60;99.90
17346;DHT22;8790;53.590;10.002;2022-11-14T16:00:58;9.60;99.90
17346;DHT22;8790;53.590;10.002;2022-11-14T16:03:48;9.50;99.90
17346;DHT22;8790;53.590;10.002;2022-11-14T16:06:40;9.50;99.90
17346;DHT22;8790;53.590;10.002;2022-11-14T16:09:31;9.50;99.90
17346;DHT22;8790;53.590;10.002;2022-11-14T16:12:21;9.50;99.90
17346;DHT22;8790;53.590;10.002;2022-11-14T16:15:12;9.50;99.90
17346;DHT22;8790;53.590;10.002;2022-11-14T16:18:04;9.50;99.90
17346;DHT22;8790;53.590;10.002;2022-11-14T16:20:54;9.40;99.90
17346;DHT22;8790;53.590;10.002;2022-11-14T16:23:49;9.40;99.90
17346;DHT22;8790;53.590;10.002;2022-11-14T16:26:39;9.40;99.90
17346;DHT22;8790;53.590;10.002;2022-11-14T16:29:30;9.40;99.90
17346;DHT22;8790;53.590;10.002;2022-11-14T16:32:20;9.40;99.90
17346;DHT22;8790;53.590;10.002;2022-11-14T16:35:16;9.40;99.90
17346;DHT22;8790;53.590;10.002;2022-11-14T16:38:09;9.30;99.90
17346;DHT22;8790;53.590;10.002;2022-11-14T16:41:05;9.40;99.90
17346;DHT22;8790;53.590;10.002;2022-11-14T16:43:56;9.30;99.90
17346;DHT22;8790;53.590;10.002;2022-11-14T16:46:46;9.30;99.90
17346;DHT22;8790;53.590;10.002;2022-11-14T16:49:37;9.30;99.90
17346;DHT22;8790;53.590;10.002;2022-11-14T16:52:28;9.40;99.90
17346;DHT22;8790;53.590;10.002;2022-11-14T16:55:18;9.30;99.90
17346;DHT22;8790;53.590;10.002;2022-11-14T16:58:10;9.30;99.90
17346;DHT22;8790;53.590;10.002;2022-11-14T17:01:00;9.30;99.90
17346;DHT22;8790;53.590;10.002;2022-11-14T17:03:51;9.20;99.90
17346;DHT22;8790;53.590;10.002;2022-11-14T17:06:41;9.20;99.90
17346;DHT22;8790;53.590;10.002;2022-11-14T17:09:32;9.30;99.90
17346;DHT22;8790;53.590;10.002;2022-11-14T17:12:22;9.20;99.90
17346;DHT22;8790;53.590;10.002;2022-11-14T17:15:14;9.20;99.90
17346;DHT22;8790;53.590;10.002;2022-11-14T17:18:05;9.20;99.90
17346;DHT22;8790;53.590;10.002;2022-11-14T17:20:55;9.20;99.90
17346;DHT22;8790;53.590;10.002;2022-11-14T17:23:46;9.20;99.90
17346;DHT22;8790;53.590;10.002;2022-11-14T17:26:36;9.20;99.90
17346;DHT22;8790;53.590;10.002;2022-11-14T17:29:27;9.20;99.90
17346;DHT22;8790;53.590;10.002;2022-11-14T17:32:19;9.30;99.90
17346;DHT22;8790;53.590;10.002;2022-11-14T17:35:09;9.30;99.90
17346;DHT22;8790;53.590;10.002;2022-11-14T17:38:00;9.20;99.90
17346;DHT22;8790;53.590;10.002;2022-11-14T17:40:55;9.20;99.90
17346;DHT22;8790;53.590;10.002;2022-11-14T17:43:45;9.20;99.90
17346;DHT22;8790;53.590;10.002;2022-11-14T17:46:36;9.20;99.90
17346;DHT22;8790;53.590;10.002;2022-11-14T17:49:28;9.20;99.90
17346;DHT22;8790;53.590;10.002;2022-11-14T17:52:18;9.20;99.90
17346;DHT22;8790;53.590;10.002;2022-11-14T17:55:09;9.20;99.90
17346;DHT22;8790;53.590;10.002;2022-11-14T17:57:59;9.20;99.90
17346;DHT22;8790;53.590;10.002;2022-11-14T18:00:50;9.10;99.90
17346;DHT22;8790;53.590;10.002;2022-11-14T18:03:41;9.20;99.90
17346;DHT22;8790;53.590;10.002;2022-11-14T18:06:33;9.10;99.90
17346;DHT22;8790;53.590;10.002;2022-11-14T18:09:23;9.10;99.90
17346;DHT22;8790;53.590;10.002;2022-11-14T18:12:15;9.10;99.90
17346;DHT22;8790;53.590;10.002;2022-11-14T18:15:06;9.20;99.90
17346;DHT22;8790;53.590;10.002;2022-11-14T18:17:57;9.20;99.90
17346;DHT22;8790;53.590;10.002;2022-11-14T18:20:47;9.20;99.90
17346;DHT22;8790;53.590;10.002;2022-11-14T18:23:39;9.10;99.90
17346;DHT22;8790;53.590;10.002;2022-11-14T18:26:29;9.10;99.90
17346;DHT22;8790;53.590;10.002;2022-11-14T18:29:20;9.10;99.90
17346;DHT22;8790;53.590;10.002;2022-11-14T18:32:10;9.10;99.90
17346;DHT22;8790;53.590;10.002;2022-11-14T18:35:01;9.10;99.90
17346;DHT22;8790;53.590;10.002;2022-11-14T18:37:51;9.00;99.90
17346;DHT22;8790;53.590;10.002;2022-11-14T18:40:43;9.00;99.90
17346;DHT22;8790;53.590;10.002;2022-11-14T18:43:33;9.00;99.90
17346;DHT22;8790;53.590;10.002;2022-11-14T18:46:24;9.00;99.90
17346;DHT22;8790;53.590;10.002;2022-11-14T18:49:15;9.00;99.90
17346;DHT22;8790;53.590;10.002;2022-11-14T18:52:06;9.00;99.90
17346;DHT22;8790;53.590;10.002;2022-11-14T18:54:56;9.00;99.90
17346;DHT22;8790;53.590;10.002;2022-11-14T18:57:48;9.00;99.90